createdAt,value
2019-02-20T00:00:03.667Z,4.24
2019-02-20T00:01:03.656Z,4.23
2019-02-20T00:02:03.629Z,4.24
2019-02-20T00:03:03.615Z,4.14
2019-02-20T00:04:03.605Z,4.14
2019-02-20T00:05:03.598Z,3.99
2019-02-20T00:06:03.599Z,3.98
2019-02-20T00:07:03.614Z,4.01
2019-02-20T00:08:03.583Z,3.95
2019-02-20T00:09:03.547Z,4.17
2019-02-20T00:10:03.544Z,4.12
2019-02-20T00:11:03.548Z,4.17
2019-02-20T00:12:03.521Z,4.17
2019-02-20T00:13:03.548Z,4.24
2019-02-20T00:14:03.499Z,4.16
2019-02-20T00:15:03.495Z,4.28
2019-02-20T00:16:03.497Z,4.24
2019-02-20T00:17:03.473Z,4.31
2019-02-20T00:18:03.474Z,4.35
2019-02-20T00:19:03.445Z,4.17
2019-02-20T00:20:03.460Z,4.32
2019-02-20T00:21:03.424Z,4.38
2019-02-20T00:22:03.419Z,4.35
2019-02-20T00:23:03.409Z,4.28
2019-02-20T00:24:03.401Z,4.23
2019-02-20T00:25:03.387Z,4.22
2019-02-20T00:26:03.393Z,4.31
2019-02-20T00:27:03.370Z,4.23
2019-02-20T00:28:03.352Z,4.26
2019-02-20T00:29:03.357Z,4.34
2019-02-20T00:30:03.840Z,4.34
2019-02-20T00:31:03.341Z,4.32
2019-02-20T00:32:03.328Z,4.34
2019-02-20T00:33:03.295Z,4.41
2019-02-20T00:34:03.293Z,4.41
2019-02-20T00:35:03.296Z,4.48
2019-02-20T00:36:03.271Z,4.49
2019-02-20T00:37:03.292Z,4.56
2019-02-20T00:38:03.309Z,4.62
2019-02-20T00:39:03.286Z,4.63
2019-02-20T00:40:03.231Z,4.62
2019-02-20T00:41:03.214Z,4.82
2019-02-20T00:42:03.226Z,4.75
2019-02-20T00:43:03.196Z,4.89
2019-02-20T00:44:03.225Z,4.94
2019-02-20T00:45:03.195Z,4.92
2019-02-20T00:46:03.243Z,4.90
2019-02-20T00:47:03.174Z,4.90
2019-02-20T00:48:03.243Z,4.77
2019-02-20T00:49:03.133Z,4.80
2019-02-20T00:50:03.254Z,4.82
2019-02-20T00:51:03.105Z,4.86
2019-02-20T00:52:03.094Z,4.75
2019-02-20T00:53:03.105Z,4.89
2019-02-20T00:54:03.080Z,4.86
2019-02-20T00:55:03.081Z,4.89
2019-02-20T00:56:03.064Z,4.74
2019-02-20T00:57:03.075Z,4.84
2019-02-20T00:58:03.065Z,4.74
2019-02-20T00:59:03.046Z,4.89
2019-02-20T01:00:03.008Z,4.92
2019-02-20T01:01:02.997Z,4.93
2019-02-20T01:02:02.994Z,4.87
2019-02-20T01:03:02.998Z,4.84
2019-02-20T01:04:02.966Z,4.89
2019-02-20T01:05:02.960Z,4.90
2019-02-20T01:06:04.925Z,4.93
2019-02-20T01:07:02.964Z,4.92
2019-02-20T01:08:02.984Z,4.84
2019-02-20T01:09:02.915Z,4.87
2019-02-20T01:10:02.905Z,4.92
2019-02-20T01:11:02.890Z,4.96
2019-02-20T01:12:02.879Z,4.93
2019-02-20T01:13:02.885Z,4.90
2019-02-20T01:14:02.890Z,5.02
2019-02-20T01:15:02.877Z,5.08
2019-02-20T01:16:02.841Z,5.15
2019-02-20T01:17:02.830Z,5.29
2019-02-20T01:18:02.819Z,5.33
2019-02-20T01:19:02.803Z,5.32
2019-02-20T01:20:02.811Z,5.29
2019-02-20T01:21:02.788Z,5.32
2019-02-20T01:22:02.770Z,5.44
2019-02-20T01:23:02.761Z,5.44
2019-02-20T01:24:02.751Z,5.35
2019-02-20T01:25:02.755Z,5.36
2019-02-20T01:26:02.732Z,5.44
2019-02-20T01:27:02.726Z,5.46
2019-02-20T01:28:02.760Z,5.43
2019-02-20T01:29:02.701Z,5.50
2019-02-20T01:30:02.706Z,5.53
2019-02-20T01:31:02.685Z,5.51
2019-02-20T01:32:02.663Z,5.50
2019-02-20T01:33:02.741Z,5.47
2019-02-20T01:34:02.655Z,5.57
2019-02-20T01:35:02.807Z,5.57
2019-02-20T01:36:02.664Z,5.54
2019-02-20T01:37:02.621Z,5.61
2019-02-20T01:38:02.603Z,5.61
2019-02-20T01:39:02.597Z,5.64
2019-02-20T01:40:02.604Z,5.71
2019-02-20T01:41:02.571Z,5.64
2019-02-20T01:42:02.560Z,5.59
2019-02-20T01:43:02.567Z,5.71
2019-02-20T01:44:02.550Z,5.68
2019-02-20T01:45:02.557Z,5.64
2019-02-20T01:46:02.519Z,5.61
2019-02-20T01:47:02.530Z,5.64
2019-02-20T01:48:02.516Z,5.73
2019-02-20T01:49:02.491Z,5.79
2019-02-20T01:50:02.473Z,5.76
2019-02-20T01:51:02.464Z,5.64
2019-02-20T01:52:02.485Z,5.65
2019-02-20T01:53:10.102Z,5.71
2019-02-20T01:54:03.441Z,5.69
2019-02-20T01:55:02.417Z,5.76
2019-02-20T01:56:02.407Z,5.71
2019-02-20T01:57:02.398Z,5.64
2019-02-20T01:58:02.422Z,5.57
2019-02-20T01:59:02.382Z,5.62
2019-02-20T02:00:02.372Z,5.62
2019-02-20T02:01:02.365Z,5.59
2019-02-20T02:02:02.344Z,5.62
2019-02-20T02:03:02.331Z,5.62
2019-02-20T02:04:02.376Z,5.62
2019-02-20T02:05:02.313Z,5.64
2019-02-20T02:06:02.328Z,5.50
2019-02-20T02:07:02.295Z,5.64
2019-02-20T02:08:02.298Z,5.54
2019-02-20T02:09:02.297Z,5.56
2019-02-20T02:10:02.262Z,5.57
2019-02-20T02:11:02.253Z,5.54
2019-02-20T02:12:02.271Z,5.57
2019-02-20T02:13:02.236Z,5.59
2019-02-20T02:14:02.234Z,5.66
2019-02-20T02:15:02.205Z,5.59
2019-02-20T02:16:02.195Z,5.59
2019-02-20T02:17:02.194Z,5.69
2019-02-20T02:18:02.222Z,5.72
2019-02-20T02:19:02.189Z,5.69
2019-02-20T02:20:02.203Z,5.62
2019-02-20T02:21:02.169Z,5.62
2019-02-20T02:22:02.246Z,5.61
2019-02-20T02:23:02.156Z,5.59
2019-02-20T02:24:02.116Z,5.69
2019-02-20T02:25:02.111Z,5.68
2019-02-20T02:26:10.465Z,5.71
2019-02-20T02:27:03.137Z,5.57
2019-02-20T02:28:02.064Z,5.62
2019-02-20T02:29:02.080Z,5.66
2019-02-20T02:30:02.050Z,5.51
2019-02-20T02:31:02.055Z,5.54
2019-02-20T02:32:02.062Z,5.51
2019-02-20T02:33:02.017Z,5.65
2019-02-20T02:34:02.002Z,5.68
2019-02-20T02:35:01.993Z,5.72
2019-02-20T02:36:02.005Z,5.73
2019-02-20T02:37:01.970Z,5.65
2019-02-20T02:38:01.983Z,5.66
2019-02-20T02:39:01.981Z,5.68
2019-02-20T02:40:01.952Z,5.65
2019-02-20T02:41:01.938Z,5.59
2019-02-20T02:42:01.966Z,5.61
2019-02-20T02:43:01.950Z,5.48
2019-02-20T02:44:01.957Z,5.47
2019-02-20T02:45:01.893Z,5.50
2019-02-20T02:46:01.875Z,5.48
2019-02-20T02:47:01.861Z,5.41
2019-02-20T02:48:01.873Z,5.44
2019-02-20T02:49:01.852Z,5.39
2019-02-20T02:50:01.842Z,5.33
2019-02-20T02:51:01.832Z,5.47
2019-02-20T02:52:01.843Z,5.50
2019-02-20T02:53:01.845Z,5.54
2019-02-20T02:54:01.789Z,5.54
2019-02-20T02:55:01.784Z,5.51
2019-02-20T02:56:01.766Z,5.54
2019-02-20T02:57:01.774Z,5.61
2019-02-20T02:58:01.773Z,5.57
2019-02-20T02:59:01.775Z,5.51
2019-02-20T03:00:01.752Z,5.68
2019-02-20T03:01:01.716Z,5.54
2019-02-20T03:02:01.703Z,5.61
2019-02-20T03:03:01.696Z,5.57
2019-02-20T03:04:01.692Z,5.50
2019-02-20T03:05:01.721Z,5.46
2019-02-20T03:06:01.678Z,5.47
2019-02-20T03:07:01.724Z,5.46
2019-02-20T03:08:01.654Z,5.47
2019-02-20T03:09:01.658Z,5.46
2019-02-20T03:10:01.673Z,5.47
2019-02-20T03:11:01.606Z,5.44
2019-02-20T03:12:01.601Z,5.43
2019-02-20T03:13:01.589Z,5.48
2019-02-20T03:14:01.577Z,5.47
2019-02-20T03:15:01.573Z,5.35
2019-02-20T03:16:01.578Z,5.36
2019-02-20T03:17:01.543Z,5.36
2019-02-20T03:18:01.538Z,5.38
2019-02-20T03:19:01.570Z,5.51
2019-02-20T03:20:01.520Z,5.48
2019-02-20T03:21:01.518Z,5.50
2019-02-20T03:22:01.541Z,5.35
2019-02-20T03:23:01.477Z,5.39
2019-02-20T03:24:01.481Z,5.51
2019-02-20T03:25:01.477Z,5.44
2019-02-20T03:26:01.459Z,5.44
2019-02-20T03:27:01.466Z,5.43
2019-02-20T03:28:01.426Z,5.48
2019-02-20T03:29:01.419Z,5.46
2019-02-20T03:30:01.461Z,5.50
2019-02-20T03:31:01.456Z,5.51
2019-02-20T03:32:01.400Z,5.57
2019-02-20T03:33:01.397Z,5.53
2019-02-20T03:34:01.387Z,5.68
2019-02-20T03:35:01.352Z,5.54
2019-02-20T03:36:01.359Z,5.59
2019-02-20T03:37:01.339Z,5.54
2019-02-20T03:38:01.351Z,5.64
2019-02-20T03:39:01.316Z,5.57
2019-02-20T03:40:01.326Z,5.48
2019-02-20T03:41:01.307Z,5.64
2019-02-20T03:42:01.371Z,5.56
2019-02-20T03:43:01.279Z,5.53
2019-02-20T03:44:01.385Z,5.59
2019-02-20T03:45:01.270Z,5.51
2019-02-20T03:46:01.285Z,5.62
2019-02-20T03:47:01.242Z,5.51
2019-02-20T03:48:01.219Z,5.59
2019-02-20T03:49:01.209Z,5.59
2019-02-20T03:50:01.197Z,5.57
2019-02-20T03:51:01.186Z,5.68
2019-02-20T03:52:01.210Z,5.56
2019-02-20T03:53:01.163Z,5.59
2019-02-20T03:54:01.175Z,5.59
2019-02-20T03:55:01.138Z,5.57
2019-02-20T03:56:01.241Z,5.65
2019-02-20T03:57:01.146Z,5.59
2019-02-20T03:58:01.264Z,5.61
2019-02-20T03:59:01.119Z,5.62
2019-02-20T04:00:01.084Z,5.57
2019-02-20T04:01:01.081Z,5.65
2019-02-20T04:02:01.070Z,5.64
2019-02-20T04:03:01.086Z,5.54
2019-02-20T04:04:01.050Z,5.62
2019-02-20T04:05:01.041Z,5.62
2019-02-20T04:06:01.022Z,5.62
2019-02-20T04:07:01.057Z,5.65
2019-02-20T04:08:01.018Z,5.57
2019-02-20T04:09:01.051Z,5.53
2019-02-20T04:10:00.985Z,5.54
2019-02-20T04:11:00.976Z,5.59
2019-02-20T04:12:00.968Z,5.53
2019-02-20T04:13:00.951Z,5.59
2019-02-20T04:14:00.963Z,5.57
2019-02-20T04:15:00.929Z,5.54
2019-02-20T04:16:00.932Z,5.53
2019-02-20T04:17:00.949Z,5.65
2019-02-20T04:18:00.896Z,5.65
2019-02-20T04:19:00.888Z,5.75
2019-02-20T04:20:00.872Z,5.71
2019-02-20T04:21:00.863Z,5.76
2019-02-20T04:22:00.854Z,5.75
2019-02-20T04:23:00.874Z,5.72
2019-02-20T04:24:02.797Z,5.80
2019-02-20T04:25:00.874Z,5.80
2019-02-20T04:26:00.809Z,5.87
2019-02-20T04:27:00.814Z,5.82
2019-02-20T04:28:00.804Z,5.80
2019-02-20T04:29:00.778Z,5.86
2019-02-20T04:30:00.769Z,5.80
2019-02-20T04:31:00.796Z,5.73
2019-02-20T04:32:00.781Z,5.79
2019-02-20T04:33:00.736Z,5.82
2019-02-20T04:34:00.751Z,5.72
2019-02-20T04:35:00.719Z,5.79
2019-02-20T04:36:00.712Z,5.72
2019-02-20T04:37:00.730Z,5.73
2019-02-20T04:38:00.737Z,5.71
2019-02-20T04:39:00.673Z,5.72
2019-02-20T04:40:00.728Z,5.72
2019-02-20T04:41:00.654Z,5.66
2019-02-20T04:42:00.642Z,5.64
2019-02-20T04:43:00.712Z,5.54
2019-02-20T04:44:00.653Z,5.62
2019-02-20T04:45:00.623Z,5.48
2019-02-20T04:46:00.605Z,5.50
2019-02-20T04:47:00.582Z,5.51
2019-02-20T04:48:00.694Z,5.51
2019-02-20T04:49:00.566Z,5.50
2019-02-20T04:50:00.553Z,5.57
2019-02-20T04:51:00.547Z,5.51
2019-02-20T04:52:00.531Z,5.56
2019-02-20T04:53:00.539Z,5.62
2019-02-20T04:54:00.552Z,5.64
2019-02-20T04:55:00.505Z,5.56
2019-02-20T04:56:00.494Z,5.62
2019-02-20T04:57:00.488Z,5.65
2019-02-20T04:58:00.498Z,5.61
2019-02-20T04:59:00.456Z,5.59
2019-02-20T05:00:00.639Z,5.65
2019-02-20T05:01:00.437Z,5.61
2019-02-20T05:02:00.514Z,5.54
2019-02-20T05:03:00.445Z,5.54
2019-02-20T05:04:00.405Z,5.53
2019-02-20T05:05:00.582Z,5.54
2019-02-20T05:06:00.405Z,5.68
2019-02-20T05:07:00.404Z,5.54
2019-02-20T05:08:00.384Z,5.51
2019-02-20T05:09:00.354Z,5.51
2019-02-20T05:10:00.390Z,5.46
2019-02-20T05:11:00.330Z,5.36
2019-02-20T05:12:00.452Z,5.35
2019-02-20T05:13:00.343Z,5.44
2019-02-20T05:14:00.318Z,5.44
2019-02-20T05:15:00.354Z,5.46
2019-02-20T05:16:00.285Z,5.35
2019-02-20T05:17:00.278Z,5.39
2019-02-20T05:18:00.283Z,5.43
2019-02-20T05:19:00.242Z,5.30
2019-02-20T05:20:00.338Z,5.46
2019-02-20T05:21:00.225Z,5.44
2019-02-20T05:22:00.217Z,5.44
2019-02-20T05:23:00.233Z,5.51
2019-02-20T05:24:00.503Z,5.50
2019-02-20T05:25:00.244Z,5.51
2019-02-20T05:26:00.184Z,5.59
2019-02-20T05:27:00.170Z,5.48
2019-02-20T05:28:00.271Z,5.57
2019-02-20T05:29:00.213Z,5.51
2019-02-20T05:30:00.376Z,5.54
2019-02-20T05:31:00.159Z,5.44
2019-02-20T05:32:00.103Z,5.41
2019-02-20T05:33:00.112Z,5.47
2019-02-20T05:34:00.124Z,5.44
2019-02-20T05:35:00.486Z,5.47
2019-02-20T05:36:00.062Z,5.47
2019-02-20T05:37:00.064Z,5.44
2019-02-20T05:38:00.060Z,5.48
2019-02-20T05:39:00.060Z,5.53
2019-02-20T05:40:00.040Z,5.54
2019-02-20T05:41:00.011Z,5.57
2019-02-20T05:42:00.006Z,5.57
2019-02-20T05:42:59.986Z,5.61
2019-02-20T05:43:59.993Z,5.57
2019-02-20T05:45:00.033Z,5.61
2019-02-20T05:45:59.960Z,5.47
2019-02-20T05:46:59.950Z,5.53
2019-02-20T05:47:59.945Z,5.47
2019-02-20T05:48:59.928Z,5.54
2019-02-20T05:49:59.914Z,5.53
2019-02-20T05:50:59.922Z,5.56
2019-02-20T05:51:59.901Z,5.47
2019-02-20T05:52:59.886Z,5.46
2019-02-20T05:53:59.888Z,5.48
2019-02-20T05:54:59.872Z,5.47
2019-02-20T05:55:59.871Z,5.32
2019-02-20T05:56:59.864Z,5.32
2019-02-20T05:57:59.830Z,5.43
2019-02-20T05:58:59.863Z,5.44
2019-02-20T05:59:59.811Z,5.44
2019-02-20T06:01:00.158Z,5.32
2019-02-20T06:01:59.785Z,5.32
2019-02-20T06:02:59.844Z,5.38
2019-02-20T06:03:59.926Z,5.44
2019-02-20T06:04:59.767Z,5.28
2019-02-20T06:05:59.746Z,5.29
2019-02-20T06:06:59.787Z,5.20
2019-02-20T06:07:59.721Z,5.26
2019-02-20T06:08:59.718Z,5.32
2019-02-20T06:09:59.707Z,5.26
2019-02-20T06:10:59.696Z,5.23
2019-02-20T06:11:59.704Z,5.32
2019-02-20T06:12:59.733Z,5.32
2019-02-20T06:13:59.733Z,5.26
2019-02-20T06:14:59.681Z,5.20
2019-02-20T06:15:59.689Z,5.29
2019-02-20T06:16:59.628Z,5.26
2019-02-20T06:17:59.626Z,5.20
2019-02-20T06:18:59.614Z,5.12
2019-02-20T06:19:59.693Z,5.11
2019-02-20T06:20:59.650Z,5.05
2019-02-20T06:21:59.672Z,5.10
2019-02-20T06:22:59.674Z,5.10
2019-02-20T06:23:59.670Z,5.08
2019-02-20T06:24:59.752Z,5.00
2019-02-20T06:25:59.540Z,4.89
2019-02-20T06:26:59.553Z,4.87
2019-02-20T06:27:59.570Z,4.90
2019-02-20T06:29:00.299Z,4.75
2019-02-20T06:29:59.508Z,4.75
2019-02-20T06:30:59.481Z,4.80
2019-02-20T06:31:59.486Z,4.73
2019-02-20T06:32:59.498Z,4.77
2019-02-20T06:33:59.484Z,4.66
2019-02-20T06:34:59.456Z,4.63
2019-02-20T06:35:59.429Z,4.73
2019-02-20T06:36:59.416Z,4.80
2019-02-20T06:37:59.431Z,4.70
2019-02-20T06:38:59.403Z,4.60
2019-02-20T06:39:59.400Z,4.68
2019-02-20T06:40:59.442Z,4.82
2019-02-20T06:41:59.429Z,4.70
2019-02-20T06:42:59.373Z,4.74
2019-02-20T06:43:59.450Z,4.62
2019-02-20T06:44:59.483Z,4.80
2019-02-20T06:45:59.364Z,4.82
2019-02-20T06:46:59.318Z,4.94
2019-02-20T06:47:59.314Z,4.90
2019-02-20T06:48:59.404Z,4.94
2019-02-20T06:50:01.214Z,4.96
2019-02-20T06:50:59.337Z,5.04
2019-02-20T06:51:59.256Z,5.00
2019-02-20T06:52:59.288Z,5.04
2019-02-20T06:53:59.230Z,5.07
2019-02-20T06:54:59.314Z,5.07
2019-02-20T06:55:59.370Z,5.12
2019-02-20T06:56:59.427Z,5.26
2019-02-20T06:57:59.279Z,5.26
2019-02-20T06:58:59.375Z,5.32
2019-02-20T06:59:59.200Z,5.32
2019-02-20T07:00:59.223Z,5.35
2019-02-20T07:01:59.474Z,5.29
2019-02-20T07:02:59.161Z,5.29
2019-02-20T07:03:59.173Z,5.32
2019-02-20T07:04:59.115Z,5.35
2019-02-20T07:05:59.110Z,5.39
2019-02-20T07:06:59.125Z,5.33
2019-02-20T07:07:59.086Z,5.35
2019-02-20T07:08:59.073Z,5.48
2019-02-20T07:09:59.141Z,5.30
2019-02-20T07:10:59.055Z,5.36
2019-02-20T07:11:59.077Z,5.43
2019-02-20T07:12:59.097Z,5.44
2019-02-20T07:13:59.032Z,5.48
2019-02-20T07:14:59.010Z,5.48
2019-02-20T07:15:59.008Z,5.64
2019-02-20T07:16:59.021Z,5.62
2019-02-20T07:17:59.310Z,5.53
2019-02-20T07:18:59.017Z,5.72
2019-02-20T07:19:59.039Z,5.62
2019-02-20T07:20:58.949Z,5.64
2019-02-20T07:21:58.977Z,5.71
2019-02-20T07:22:58.981Z,5.80
2019-02-20T07:23:58.976Z,5.64
2019-02-20T07:25:03.053Z,5.76
2019-02-20T07:25:58.895Z,5.73
2019-02-20T07:26:58.916Z,5.84
2019-02-20T07:27:58.927Z,5.89
2019-02-20T07:28:58.862Z,5.94
2019-02-20T07:29:58.872Z,5.97
2019-02-20T07:30:58.858Z,5.94
2019-02-20T07:31:58.836Z,6.11
2019-02-20T07:32:58.832Z,6.07
2019-02-20T07:33:58.818Z,6.09
2019-02-20T07:34:58.869Z,6.17
2019-02-20T07:35:58.797Z,6.22
2019-02-20T07:36:58.810Z,6.27
2019-02-20T07:37:58.800Z,6.35
2019-02-20T07:38:58.771Z,6.39
2019-02-20T07:39:58.829Z,6.41
2019-02-20T07:40:58.911Z,6.39
2019-02-20T07:41:58.982Z,6.51
2019-02-20T07:42:58.905Z,6.51
2019-02-20T07:43:58.773Z,6.54
2019-02-20T07:44:58.793Z,6.46
2019-02-20T07:45:58.715Z,6.49
2019-02-20T07:46:58.977Z,6.57
2019-02-20T07:47:58.971Z,6.51
2019-02-20T07:48:58.777Z,6.48
2019-02-20T07:49:58.688Z,6.48
2019-02-20T07:50:58.617Z,6.59
2019-02-20T07:51:58.611Z,6.59
2019-02-20T07:52:58.617Z,6.57
2019-02-20T07:53:58.594Z,6.60
2019-02-20T07:54:58.598Z,6.70
2019-02-20T07:55:58.592Z,6.70
2019-02-20T07:56:58.557Z,6.70
2019-02-20T07:57:58.546Z,6.78
2019-02-20T07:58:58.558Z,6.79
2019-02-20T07:59:58.566Z,6.89
2019-02-20T08:00:58.590Z,6.88
2019-02-20T08:01:58.572Z,6.93
2019-02-20T08:02:58.506Z,6.93
2019-02-20T08:03:58.508Z,6.97
2019-02-20T08:04:58.518Z,6.87
2019-02-20T08:05:59.075Z,6.99
2019-02-20T08:06:58.489Z,7.03
2019-02-20T08:07:58.488Z,7.14
2019-02-20T08:08:58.474Z,7.05
2019-02-20T08:09:58.436Z,7.03
2019-02-20T08:10:58.405Z,7.21
2019-02-20T08:11:58.439Z,7.21
2019-02-20T08:12:58.515Z,7.28
2019-02-20T08:13:58.399Z,7.28
2019-02-20T08:14:59.109Z,7.33
2019-02-20T08:15:58.412Z,7.32
2019-02-20T08:16:58.355Z,7.38
2019-02-20T08:17:58.380Z,7.40
2019-02-20T08:18:58.373Z,7.47
2019-02-20T08:19:58.315Z,7.51
2019-02-20T08:20:58.301Z,7.51
2019-02-20T08:21:58.445Z,7.53
2019-02-20T08:22:58.308Z,7.54
2019-02-20T08:23:58.264Z,7.67
2019-02-20T08:24:58.259Z,7.73
2019-02-20T08:25:59.737Z,7.67
2019-02-20T08:26:58.593Z,7.72
2019-02-20T08:27:58.890Z,7.72
2019-02-20T08:28:58.218Z,7.77
2019-02-20T08:29:58.337Z,7.87
2019-02-20T08:30:58.243Z,7.76
2019-02-20T08:31:58.190Z,7.77
2019-02-20T08:32:58.191Z,7.77
2019-02-20T08:33:58.421Z,7.94
2019-02-20T08:34:58.308Z,8.00
2019-02-20T08:35:58.195Z,7.97
2019-02-20T08:36:58.223Z,8.05
2019-02-20T08:37:58.146Z,8.19
2019-02-20T08:38:58.109Z,8.26
2019-02-20T08:39:58.110Z,8.20
2019-02-20T08:40:58.135Z,8.34
2019-02-20T08:41:58.136Z,8.24
2019-02-20T08:42:58.067Z,8.30
2019-02-20T08:43:58.131Z,8.19
2019-02-20T08:44:58.321Z,8.31
2019-02-20T08:45:58.202Z,8.34
2019-02-20T08:46:58.019Z,8.31
2019-02-20T08:47:58.002Z,8.42
2019-02-20T08:48:57.993Z,8.44
2019-02-20T08:49:58.011Z,8.49
2019-02-20T08:50:58.011Z,8.56
2019-02-20T08:51:57.994Z,8.53
2019-02-20T08:52:58.018Z,8.69
2019-02-20T08:53:57.957Z,8.79
2019-02-20T08:54:58.158Z,8.85
2019-02-20T08:55:57.927Z,8.89
2019-02-20T08:56:57.969Z,9.02
2019-02-20T08:57:57.973Z,8.94
2019-02-20T08:58:58.345Z,8.85
2019-02-20T08:59:57.924Z,8.87
2019-02-20T09:00:57.865Z,8.87
2019-02-20T09:01:57.955Z,8.87
2019-02-20T09:02:57.840Z,8.78
2019-02-20T09:03:57.869Z,8.81
2019-02-20T09:04:57.868Z,8.81
2019-02-20T09:05:58.290Z,8.88
2019-02-20T09:06:58.181Z,8.91
2019-02-20T09:07:57.854Z,8.88
2019-02-20T09:08:57.777Z,9.02
2019-02-20T09:09:57.835Z,8.97
2019-02-20T09:10:57.760Z,9.02
2019-02-20T09:11:57.807Z,9.04
2019-02-20T09:12:57.943Z,9.03
2019-02-20T09:13:57.967Z,9.04
2019-02-20T09:14:58.165Z,8.97
2019-02-20T09:15:58.108Z,9.02
2019-02-20T09:16:57.979Z,8.73
2019-02-20T09:17:57.731Z,8.74
2019-02-20T09:18:57.715Z,8.79
2019-02-20T09:19:57.668Z,8.82
2019-02-20T09:20:57.675Z,8.91
2019-02-20T09:21:57.665Z,8.84
2019-02-20T09:22:57.652Z,9.00
2019-02-20T09:23:57.636Z,9.08
2019-02-20T09:24:57.699Z,9.04
2019-02-20T09:25:57.596Z,9.13
2019-02-20T09:26:57.614Z,9.19
2019-02-20T09:27:57.568Z,9.26
2019-02-20T09:28:57.564Z,9.28
2019-02-20T09:29:57.552Z,9.41
2019-02-20T09:30:57.566Z,9.32
2019-02-20T09:31:57.534Z,9.51
2019-02-20T09:32:57.581Z,9.44
2019-02-20T09:33:57.537Z,9.46
2019-02-20T09:34:57.495Z,9.51
2019-02-20T09:35:57.573Z,9.72
2019-02-20T09:36:57.869Z,9.66
2019-02-20T09:37:57.633Z,9.68
2019-02-20T09:38:57.606Z,9.59
2019-02-20T09:39:57.442Z,9.73
2019-02-20T09:40:57.463Z,9.74
2019-02-20T09:41:57.464Z,9.83
2019-02-20T09:42:57.455Z,9.89
2019-02-20T09:43:57.403Z,9.98
2019-02-20T09:44:58.111Z,9.92
2019-02-20T09:45:57.436Z,9.86
2019-02-20T09:46:57.368Z,10.01
2019-02-20T09:47:57.373Z,9.94
2019-02-20T09:48:57.397Z,9.95
2019-02-20T09:49:57.345Z,9.95
2019-02-20T09:50:57.347Z,9.99
2019-02-20T09:51:57.347Z,9.86
2019-02-20T09:52:57.350Z,9.83
2019-02-20T09:53:57.386Z,9.94
2019-02-20T09:54:57.383Z,9.94
2019-02-20T09:55:57.303Z,10.07
2019-02-20T09:56:57.269Z,9.95
2019-02-20T09:57:57.305Z,10.07
2019-02-20T09:58:57.329Z,10.10
2019-02-20T09:59:57.257Z,10.02
2019-02-20T10:00:57.286Z,10.04
2019-02-20T10:01:57.336Z,10.10
2019-02-20T10:02:57.210Z,10.16
2019-02-20T10:03:57.367Z,10.09
2019-02-20T10:04:57.322Z,10.01
2019-02-20T10:05:57.243Z,10.02
2019-02-20T10:06:57.365Z,10.05
2019-02-20T10:07:57.314Z,10.01
2019-02-20T10:08:57.242Z,9.99
2019-02-20T10:09:57.212Z,10.09
2019-02-20T10:10:57.288Z,10.20
2019-02-20T10:11:57.091Z,10.19
2019-02-20T10:12:57.084Z,10.28
2019-02-20T10:13:57.102Z,10.34
2019-02-20T10:14:57.105Z,10.40
2019-02-20T10:15:57.095Z,10.53
2019-02-20T10:16:57.044Z,10.54
2019-02-20T10:17:57.057Z,10.64
2019-02-20T10:18:57.128Z,10.63
2019-02-20T10:19:57.142Z,10.54
2019-02-20T10:20:57.004Z,10.48
2019-02-20T10:21:56.992Z,10.40
2019-02-20T10:22:57.011Z,10.51
2019-02-20T10:23:57.009Z,10.49
2019-02-20T10:24:57.025Z,10.40
2019-02-20T10:26:00.790Z,10.51
2019-02-20T10:27:00.674Z,10.46
2019-02-20T10:27:56.920Z,10.51
2019-02-20T10:28:56.931Z,10.63
2019-02-20T10:29:56.929Z,10.63
2019-02-20T10:30:56.941Z,10.67
2019-02-20T10:31:56.898Z,10.72
2019-02-20T10:32:56.866Z,10.71
2019-02-20T10:33:56.878Z,10.76
2019-02-20T10:34:56.844Z,10.93
2019-02-20T10:35:56.844Z,11.04
2019-02-20T10:36:56.824Z,11.02
2019-02-20T10:37:56.851Z,10.92
2019-02-20T10:38:56.860Z,10.99
2019-02-20T10:39:56.860Z,10.79
2019-02-20T10:40:56.785Z,10.68
2019-02-20T10:41:56.796Z,10.78
2019-02-20T10:42:56.758Z,10.84
2019-02-20T10:43:56.772Z,10.74
2019-02-20T10:44:56.731Z,10.72
2019-02-20T10:45:56.733Z,10.78
2019-02-20T10:46:56.715Z,10.64
2019-02-20T10:47:56.735Z,10.63
2019-02-20T10:48:56.722Z,10.72
2019-02-20T10:49:56.756Z,10.63
2019-02-20T10:50:56.755Z,10.68
2019-02-20T10:51:56.743Z,10.74
2019-02-20T10:52:56.780Z,10.78
2019-02-20T10:53:56.818Z,10.74
2019-02-20T10:54:57.957Z,10.82
2019-02-20T10:55:56.641Z,10.87
2019-02-20T10:56:56.807Z,10.87
2019-02-20T10:57:56.598Z,10.93
2019-02-20T10:58:56.619Z,10.81
2019-02-20T10:59:56.620Z,10.87
2019-02-20T11:00:56.621Z,10.90
2019-02-20T11:01:56.548Z,10.99
2019-02-20T11:02:56.542Z,11.07
2019-02-20T11:03:56.529Z,11.07
2019-02-20T11:04:56.532Z,11.15
2019-02-20T11:05:56.516Z,11.26
2019-02-20T11:06:56.503Z,11.15
2019-02-20T11:07:56.487Z,11.29
2019-02-20T11:08:56.503Z,11.27
2019-02-20T11:09:56.461Z,11.36
2019-02-20T11:10:56.452Z,11.27
2019-02-20T11:11:56.444Z,11.36
2019-02-20T11:12:56.437Z,11.44
2019-02-20T11:13:56.420Z,11.41
2019-02-20T11:14:56.427Z,11.40
2019-02-20T11:15:56.406Z,11.27
2019-02-20T11:16:56.387Z,11.22
2019-02-20T11:17:56.385Z,11.18
2019-02-20T11:18:56.367Z,11.26
2019-02-20T11:19:56.375Z,11.33
2019-02-20T11:20:56.364Z,11.41
2019-02-20T11:21:56.362Z,11.44
2019-02-20T11:22:56.326Z,11.37
2019-02-20T11:23:56.314Z,11.27
2019-02-20T11:24:56.299Z,11.30
2019-02-20T11:25:56.311Z,11.32
2019-02-20T11:26:56.281Z,11.30
2019-02-20T11:27:56.270Z,11.40
2019-02-20T11:28:56.255Z,11.40
2019-02-20T11:29:56.276Z,11.40
2019-02-20T11:30:56.876Z,11.44
2019-02-20T11:31:56.595Z,11.26
2019-02-20T11:32:56.219Z,11.35
2019-02-20T11:33:56.200Z,11.41
2019-02-20T11:34:56.192Z,11.52
2019-02-20T11:35:56.208Z,11.73
2019-02-20T11:36:56.171Z,11.63
2019-02-20T11:37:56.164Z,11.63
2019-02-20T11:38:56.151Z,11.60
2019-02-20T11:39:56.142Z,11.66
2019-02-20T11:40:56.132Z,11.80
2019-02-20T11:41:56.148Z,11.80
2019-02-20T11:42:56.139Z,11.78
2019-02-20T11:43:56.105Z,11.91
2019-02-20T11:44:56.107Z,11.87
2019-02-20T11:45:56.078Z,11.77
2019-02-20T11:46:56.083Z,11.66
2019-02-20T11:47:56.052Z,11.55
2019-02-20T11:48:56.056Z,11.63
2019-02-20T11:49:56.035Z,11.65
2019-02-20T11:50:56.020Z,11.88
2019-02-20T11:51:56.039Z,11.81
2019-02-20T11:52:56.007Z,11.94
2019-02-20T11:53:55.986Z,11.97
2019-02-20T11:54:57.218Z,11.91
2019-02-20T11:55:55.967Z,11.84
2019-02-20T11:56:55.997Z,11.88
2019-02-20T11:58:00.811Z,11.99
2019-02-20T11:58:56.934Z,11.90
2019-02-20T11:59:55.925Z,11.83
2019-02-20T12:00:55.929Z,11.75
2019-02-20T12:01:55.904Z,11.73
2019-02-20T12:02:55.911Z,11.77
2019-02-20T12:03:55.918Z,11.84
2019-02-20T12:04:55.879Z,11.87
2019-02-20T12:05:55.882Z,11.90
2019-02-20T12:06:55.846Z,11.99
2019-02-20T12:07:55.836Z,11.99
2019-02-20T12:08:55.826Z,11.94
2019-02-20T12:09:55.820Z,11.91
2019-02-20T12:10:55.805Z,11.97
2019-02-20T12:11:55.814Z,11.86
2019-02-20T12:12:55.788Z,11.72
2019-02-20T12:13:55.771Z,11.62
2019-02-20T12:14:55.762Z,11.66
2019-02-20T12:15:55.782Z,11.84
2019-02-20T12:16:55.744Z,11.87
2019-02-20T12:17:55.728Z,11.97
2019-02-20T12:18:55.723Z,12.12
2019-02-20T12:19:55.706Z,12.09
2019-02-20T12:20:55.692Z,12.29
2019-02-20T12:21:55.707Z,12.43
2019-02-20T12:22:55.676Z,12.36
2019-02-20T12:23:55.679Z,12.47
2019-02-20T12:24:55.683Z,12.67
2019-02-20T12:25:55.659Z,12.85
2019-02-20T12:26:55.630Z,12.82
2019-02-20T12:27:55.619Z,12.86
2019-02-20T12:28:55.608Z,12.72
2019-02-20T12:29:55.604Z,12.64
2019-02-20T12:30:55.612Z,12.36
2019-02-20T12:31:55.576Z,12.28
2019-02-20T12:32:55.567Z,12.31
2019-02-20T12:33:55.578Z,12.29
2019-02-20T12:34:55.555Z,12.15
2019-02-20T12:35:55.564Z,12.27
2019-02-20T12:36:55.527Z,12.35
2019-02-20T12:37:55.508Z,12.37
2019-02-20T12:38:55.501Z,12.29
2019-02-20T12:39:55.489Z,12.17
2019-02-20T12:40:55.476Z,12.06
2019-02-20T12:41:55.489Z,12.00
2019-02-20T12:42:55.459Z,11.95
2019-02-20T12:43:55.449Z,11.91
2019-02-20T12:44:55.450Z,11.91
2019-02-20T12:45:55.488Z,11.84
2019-02-20T12:46:55.434Z,11.91
2019-02-20T12:47:55.405Z,11.87
2019-02-20T12:48:55.421Z,11.62
2019-02-20T12:49:55.378Z,11.55
2019-02-20T12:50:55.370Z,11.44
2019-02-20T12:51:55.363Z,11.54
2019-02-20T12:52:55.347Z,11.45
2019-02-20T12:53:55.342Z,11.54
2019-02-20T12:54:55.355Z,11.73
2019-02-20T12:55:55.318Z,11.95
2019-02-20T12:56:55.310Z,11.86
2019-02-20T12:57:55.292Z,12.09
2019-02-20T12:58:55.287Z,12.18
2019-02-20T12:59:55.282Z,12.21
2019-02-20T13:00:55.285Z,12.21
2019-02-20T13:01:55.257Z,12.29
2019-02-20T13:02:55.243Z,12.35
2019-02-20T13:03:55.232Z,12.37
2019-02-20T13:04:55.218Z,12.43
2019-02-20T13:05:55.234Z,12.32
2019-02-20T13:06:59.466Z,12.20
2019-02-20T13:07:55.195Z,12.21
2019-02-20T13:08:55.186Z,12.31
2019-02-20T13:09:55.166Z,12.22
2019-02-20T13:10:56.630Z,12.24